createdAt,value
2023-01-28T00:00:09.686Z,61.30
2023-01-28T00:02:57.817Z,60.30
2023-01-28T00:05:26.046Z,64.50
2023-01-28T00:07:53.910Z,58.60
2023-01-28T00:10:21.766Z,58.60
2023-01-28T00:12:51.060Z,62.90
2023-01-28T00:15:19.105Z,59.00
2023-01-28T00:17:47.032Z,56.20
2023-01-28T00:20:15.152Z,58.70
2023-01-28T00:22:51.824Z,64.20
2023-01-28T00:25:20.090Z,61.30
2023-01-28T00:27:49.609Z,56.40
2023-01-28T00:30:19.436Z,56.70
2023-01-28T00:32:48.666Z,61.10
2023-01-28T00:35:16.991Z,55.40
2023-01-28T00:37:48.316Z,60.60
2023-01-28T00:40:16.927Z,53.70
2023-01-28T00:42:44.842Z,53.50
2023-01-28T00:45:13.472Z,59.70
2023-01-28T00:47:41.481Z,53.90
2023-01-28T00:50:10.043Z,56.40
2023-01-28T00:52:38.558Z,48.20
2023-01-28T00:55:07.300Z,57.90
2023-01-28T00:57:35.242Z,58.70
2023-01-28T01:00:05.969Z,57.50
2023-01-28T01:02:33.981Z,56.70
2023-01-28T01:05:02.536Z,51.00
2023-01-28T01:07:43.908Z,59.60
2023-01-28T01:10:15.855Z,56.10
2023-01-28T01:12:47.811Z,57.50
2023-01-28T01:15:17.604Z,56.10
2023-01-28T01:17:48.709Z,57.20
2023-01-28T01:20:22.361Z,54.00
2023-01-28T01:22:52.170Z,53.80
2023-01-28T01:25:20.505Z,53.80
2023-01-28T01:27:50.215Z,56.40
2023-01-28T01:30:19.217Z,55.10
2023-01-28T01:32:47.815Z,59.80
2023-01-28T01:35:16.443Z,59.80
2023-01-28T01:37:45.111Z,58.80
2023-01-28T01:40:13.352Z,56.00
2023-01-28T01:42:41.941Z,63.00
2023-01-28T01:45:17.821Z,69.10
2023-01-28T01:48:03.971Z,64.40
2023-01-28T01:50:39.759Z,57.20
2023-01-28T01:53:11.592Z,59.90
2023-01-28T01:55:43.426Z,58.20
2023-01-28T01:58:17.747Z,59.40
2023-01-28T02:00:46.576Z,56.30
2023-01-28T02:03:17.856Z,61.50
2023-01-28T02:05:45.694Z,65.50
2023-01-28T02:08:23.154Z,64.60
2023-01-28T02:10:59.069Z,62.60
2023-01-28T02:13:31.586Z,68.30
2023-01-28T02:16:02.618Z,65.60
2023-01-28T02:18:32.861Z,71.80
2023-01-28T02:21:19.232Z,72.40
2023-01-28T02:24:05.860Z,72.80
2023-01-28T02:26:36.908Z,68.80
2023-01-28T02:29:17.194Z,66.30
2023-01-28T02:31:52.816Z,74.90
2023-01-28T02:34:43.301Z,73.90
2023-01-28T02:37:21.594Z,71.50
2023-01-28T02:39:55.329Z,66.40
2023-01-28T02:42:29.879Z,69.40
2023-01-28T02:44:58.643Z,66.80
2023-01-28T02:47:56.598Z,67.40
2023-01-28T02:50:32.464Z,65.40
2023-01-28T02:53:41.273Z,64.50
2023-01-28T02:56:15.363Z,65.00
2023-01-28T02:58:52.849Z,66.90
2023-01-28T03:01:43.090Z,69.20
2023-01-28T03:04:34.639Z,68.70
2023-01-28T03:07:07.065Z,72.10
2023-01-28T03:09:37.938Z,62.30
2023-01-28T03:12:29.360Z,66.50
2023-01-28T03:15:35.433Z,67.10
2023-01-28T03:18:43.749Z,62.10
2023-01-28T03:21:41.305Z,56.20
2023-01-28T03:24:45.228Z,63.60
2023-01-28T03:27:47.845Z,66.50
2023-01-28T03:30:41.788Z,64.70
2023-01-28T03:33:33.945Z,60.40
2023-01-28T03:36:21.173Z,62.60
2023-01-28T03:38:51.377Z,63.80
2023-01-28T03:41:25.160Z,60.30
2023-01-28T03:43:56.305Z,60.40
2023-01-28T03:46:24.381Z,65.40
2023-01-28T03:48:52.994Z,64.00
2023-01-28T03:51:21.540Z,65.40
2023-01-28T03:53:50.727Z,56.40
2023-01-28T03:56:19.941Z,62.50
2023-01-28T03:58:56.692Z,63.90
2023-01-28T04:02:46.294Z,59.40
2023-01-28T04:05:16.389Z,57.90
2023-01-28T04:07:51.699Z,54.70
2023-01-28T04:10:27.248Z,59.40
2023-01-28T04:12:58.655Z,59.60
2023-01-28T04:15:27.045Z,62.70
2023-01-28T04:17:56.168Z,68.40
2023-01-28T04:20:28.114Z,63.20
2023-01-28T04:22:58.761Z,64.50
2023-01-28T04:25:27.052Z,57.10
2023-01-28T04:27:55.297Z,67.00
2023-01-28T04:34:36.936Z,54.60
2023-01-28T04:37:25.160Z,55.40
2023-01-28T04:40:12.303Z,58.40
2023-01-28T04:43:00.478Z,61.00
2023-01-28T04:45:50.938Z,57.40
2023-01-28T04:48:36.521Z,62.30
2023-01-28T04:51:27.710Z,57.10
2023-01-28T04:54:18.840Z,61.20
2023-01-28T04:56:46.877Z,59.10
2023-01-28T04:59:15.305Z,57.80
2023-01-28T05:01:44.152Z,58.20
2023-01-28T05:04:12.569Z,65.00
2023-01-28T05:06:40.795Z,62.90
2023-01-28T05:09:13.201Z,58.00
2023-01-28T05:11:42.444Z,62.70
2023-01-28T05:14:10.357Z,57.90
2023-01-28T05:17:01.330Z,57.20
2023-01-28T05:20:16.048Z,54.40
2023-01-28T05:22:46.537Z,50.90
2023-01-28T05:25:20.933Z,51.20
2023-01-28T05:27:52.687Z,46.80
2023-01-28T05:30:21.824Z,51.40
2023-01-28T05:32:50.463Z,52.90
2023-01-28T05:35:22.917Z,48.40
2023-01-28T05:37:51.713Z,47.80
2023-01-28T05:40:20.666Z,52.70
2023-01-28T05:42:48.728Z,48.30
2023-01-28T05:45:35.319Z,48.30
2023-01-28T05:48:16.503Z,45.40
2023-01-28T05:51:05.450Z,45.90
2023-01-28T05:53:38.866Z,46.00
2023-01-28T05:56:07.810Z,43.10
2023-01-28T05:58:37.066Z,44.60
2023-01-28T06:01:05.141Z,47.70
2023-01-28T06:03:39.965Z,44.10
2023-01-28T06:06:07.938Z,44.80
2023-01-28T06:08:37.591Z,42.20
2023-01-28T06:11:05.825Z,46.50
2023-01-28T06:13:35.138Z,44.10
2023-01-28T06:16:03.955Z,42.30
2023-01-28T06:19:23.081Z,45.40
2023-01-28T06:21:51.718Z,42.50
2023-01-28T06:24:21.504Z,41.10
2023-01-28T06:26:50.110Z,40.50
2023-01-28T06:29:19.454Z,41.90
2023-01-28T06:31:47.693Z,42.50
2023-01-28T06:34:15.557Z,41.20
2023-01-28T06:36:43.521Z,40.30
2023-01-28T06:39:11.707Z,40.90
2023-01-28T06:41:39.709Z,47.80
2023-01-28T06:44:07.664Z,36.10
2023-01-28T06:46:35.945Z,43.80
2023-01-28T06:49:04.169Z,41.00
2023-01-28T06:51:32.258Z,42.80
2023-01-28T06:54:00.548Z,39.90
2023-01-28T06:56:28.549Z,47.40
2023-01-28T06:58:56.463Z,42.60
2023-01-28T07:01:24.845Z,45.40
2023-01-28T07:03:52.797Z,40.90
2023-01-28T07:06:20.697Z,43.20
2023-01-28T07:08:49.151Z,42.80
2023-01-28T07:11:17.729Z,47.60
2023-01-28T07:13:46.644Z,50.10
2023-01-28T07:16:14.730Z,36.70
2023-01-28T07:18:42.808Z,49.30
2023-01-28T07:21:10.775Z,43.40
2023-01-28T07:23:40.006Z,41.80
2023-01-28T07:26:08.014Z,41.20
2023-01-28T07:28:35.887Z,38.20
2023-01-28T07:31:04.056Z,37.80
2023-01-28T07:33:32.093Z,45.30
2023-01-28T07:36:00.146Z,38.70
2023-01-28T07:38:28.098Z,39.10
2023-01-28T07:40:56.124Z,42.40
2023-01-28T07:43:24.223Z,40.20
2023-01-28T07:45:52.166Z,47.10
2023-01-28T07:48:20.546Z,45.20
2023-01-28T07:50:49.789Z,45.50
2023-01-28T07:53:19.072Z,59.00
2023-01-28T07:55:47.089Z,63.90
2023-01-28T07:58:15.034Z,65.30
2023-01-28T08:00:43.029Z,80.00
2023-01-28T08:03:15.769Z,78.30
2023-01-28T08:05:49.593Z,57.40
2023-01-28T08:08:17.615Z,50.40
2023-01-28T08:10:46.076Z,53.50
2023-01-28T08:13:15.429Z,48.00
2023-01-28T08:15:44.753Z,46.00
2023-01-28T08:18:14.895Z,47.30
2023-01-28T08:20:44.900Z,43.30
2023-01-28T08:23:18.209Z,50.50
2023-01-28T08:25:47.688Z,43.20
2023-01-28T08:28:17.067Z,47.70
2023-01-28T08:30:45.383Z,48.40
2023-01-28T08:33:15.858Z,50.60
2023-01-28T08:35:44.224Z,50.70
2023-01-28T08:38:13.775Z,49.90
2023-01-28T08:40:41.727Z,41.20
2023-01-28T08:43:09.707Z,34.40
2023-01-28T08:45:40.577Z,31.90
2023-01-28T08:48:14.891Z,39.20
2023-01-28T08:50:43.543Z,34.70
2023-01-28T08:53:14.298Z,34.30
2023-01-28T08:55:42.598Z,37.60
2023-01-28T08:58:14.215Z,35.70
2023-01-28T09:00:43.452Z,33.10
2023-01-28T09:03:11.904Z,35.90
2023-01-28T09:05:40.286Z,36.70
2023-01-28T09:08:13.585Z,37.90
2023-01-28T09:10:42.373Z,37.20
2023-01-28T09:13:14.176Z,37.30
2023-01-28T09:15:42.764Z,36.20
2023-01-28T09:18:10.969Z,41.10
2023-01-28T09:20:39.551Z,33.70
2023-01-28T09:23:07.542Z,38.10
2023-01-28T09:25:38.785Z,40.50
2023-01-28T09:28:06.796Z,32.90
2023-01-28T09:30:37.269Z,33.60
2023-01-28T09:33:06.539Z,29.60
2023-01-28T09:35:35.166Z,34.60
2023-01-28T09:38:03.378Z,32.40
2023-01-28T09:40:40.282Z,35.10
2023-01-28T09:43:47.463Z,33.40
2023-01-28T09:46:18.557Z,36.00
2023-01-28T09:48:51.427Z,37.60
2023-01-28T09:51:31.842Z,32.90
2023-01-28T09:54:06.027Z,39.30
2023-01-28T09:56:44.102Z,37.50
2023-01-28T09:59:21.153Z,35.20
2023-01-28T10:01:49.509Z,38.30
2023-01-28T10:05:00.201Z,33.20
2023-01-28T10:07:42.024Z,36.80
2023-01-28T10:10:16.580Z,43.90
2023-01-28T10:12:50.704Z,40.80
2023-01-28T10:15:47.108Z,37.40
2023-01-28T10:18:17.956Z,40.10
2023-01-28T10:20:55.349Z,26.30
2023-01-28T10:23:41.343Z,37.50
2023-01-28T10:26:23.006Z,32.30
2023-01-28T10:28:56.615Z,33.70
2023-01-28T10:31:31.886Z,35.90
2023-01-28T10:34:00.759Z,36.10
2023-01-28T10:36:29.593Z,41.80
2023-01-28T10:38:58.393Z,38.50
2023-01-28T10:41:26.882Z,41.50
2023-01-28T10:43:57.200Z,37.50
2023-01-28T10:46:34.926Z,34.70
2023-01-28T10:49:11.172Z,32.50
2023-01-28T10:51:41.781Z,35.80
2023-01-28T10:54:26.127Z,35.30
2023-01-28T10:57:05.891Z,39.20
2023-01-28T10:59:42.085Z,37.50
2023-01-28T11:04:37.998Z,32.90
2023-01-28T11:07:17.405Z,35.00
2023-01-28T11:09:47.994Z,32.20
2023-01-28T11:12:29.369Z,33.70
2023-01-28T11:15:03.549Z,33.60
2023-01-28T11:17:50.051Z,33.90
2023-01-28T11:20:22.925Z,40.20
2023-01-28T11:22:51.873Z,34.70
2023-01-28T11:25:29.482Z,37.30
2023-01-28T11:27:59.461Z,34.20
2023-01-28T11:30:37.595Z,37.50
2023-01-28T11:33:18.829Z,39.20
2023-01-28T11:35:55.225Z,34.40
2023-01-28T11:38:26.020Z,45.20
2023-01-28T11:40:56.805Z,33.40
2023-01-28T11:43:30.361Z,35.20
2023-01-28T11:46:05.406Z,34.70
2023-01-28T11:49:07.411Z,32.30
2023-01-28T11:51:45.692Z,27.80
2023-01-28T11:54:35.196Z,30.20
2023-01-28T11:57:24.131Z,32.30
2023-01-28T12:00:16.962Z,26.00
2023-01-28T12:03:03.035Z,30.90
2023-01-28T12:05:48.892Z,32.40
2023-01-28T12:08:21.154Z,26.80
2023-01-28T12:11:17.159Z,36.20
2023-01-28T12:14:10.429Z,27.40
2023-01-28T12:16:50.396Z,27.90
2023-01-28T12:19:30.373Z,30.90
2023-01-28T12:22:13.678Z,39.80
2023-01-28T12:24:50.766Z,43.60
2023-01-28T12:27:51.161Z,44.30
2023-01-28T12:30:34.432Z,35.40
2023-01-28T12:33:25.361Z,34.60
2023-01-28T12:36:07.166Z,31.30
2023-01-28T12:39:02.367Z,34.40
2023-01-28T12:41:40.042Z,34.50
2023-01-28T12:44:38.508Z,34.00
2023-01-28T12:47:10.907Z,41.70
2023-01-28T12:49:50.878Z,36.60
2023-01-28T12:52:33.191Z,31.40
2023-01-28T12:55:43.107Z,29.90
2023-01-28T12:58:23.827Z,27.70
2023-01-28T13:01:00.084Z,29.50
2023-01-28T13:03:35.473Z,26.80
2023-01-28T13:06:10.646Z,30.50
2023-01-28T13:08:38.780Z,29.90
2023-01-28T13:11:12.367Z,30.30
2023-01-28T13:13:42.815Z,31.50
2023-01-28T13:16:12.943Z,29.70
2023-01-28T13:18:41.064Z,31.30
2023-01-28T13:21:17.167Z,33.00
2023-01-28T13:23:47.618Z,28.60
2023-01-28T13:26:18.594Z,25.80
2023-01-28T13:28:49.209Z,27.20
2023-01-28T13:31:21.127Z,25.40
2023-01-28T13:34:02.805Z,28.70
2023-01-28T13:36:34.356Z,27.10
2023-01-28T13:39:06.250Z,28.90
2023-01-28T13:41:46.130Z,25.50
2023-01-28T13:44:34.351Z,25.10
2023-01-28T13:47:09.107Z,23.20
2023-01-28T13:49:47.822Z,27.00
2023-01-28T13:52:23.266Z,28.50
2023-01-28T13:55:06.389Z,26.80
2023-01-28T13:58:04.631Z,29.10
2023-01-28T14:00:35.636Z,32.80
2023-01-28T14:03:15.691Z,30.00
2023-01-28T14:05:58.658Z,29.70
2023-01-28T14:08:38.712Z,27.30
2023-01-28T14:14:49.040Z,27.00
2023-01-28T14:19:58.590Z,28.70
2023-01-28T14:22:27.073Z,30.70
2023-01-28T14:25:00.255Z,33.70
2023-01-28T14:27:35.392Z,31.10
2023-01-28T14:30:18.525Z,28.10
2023-01-28T14:32:48.410Z,32.40
2023-01-28T14:35:20.975Z,30.70
2023-01-28T14:37:49.080Z,30.80
2023-01-28T14:40:18.009Z,31.30
2023-01-28T14:42:49.164Z,33.10
2023-01-28T14:45:35.730Z,30.10
2023-01-28T14:48:43.355Z,34.20
2023-01-28T14:51:31.215Z,33.10
2023-01-28T14:54:13.728Z,33.60
2023-01-28T14:57:00.540Z,30.50
2023-01-28T14:59:39.191Z,36.80
2023-01-28T15:02:18.373Z,37.10
2023-01-28T15:04:47.021Z,37.80
2023-01-28T15:07:24.329Z,37.20
2023-01-28T15:10:07.488Z,42.40
2023-01-28T15:12:39.655Z,40.00
2023-01-28T15:15:20.811Z,34.40
2023-01-28T15:17:49.735Z,27.60
2023-01-28T15:20:23.960Z,31.40
2023-01-28T15:22:53.693Z,33.40
2023-01-28T15:25:24.298Z,25.20
2023-01-28T15:27:56.166Z,29.00
2023-01-28T15:30:30.150Z,32.00
2023-01-28T15:33:11.962Z,34.50
2023-01-28T15:35:50.921Z,30.60
2023-01-28T15:38:19.151Z,32.80
2023-01-28T15:40:52.192Z,33.20
2023-01-28T15:43:24.445Z,32.40
2023-01-28T15:45:56.025Z,36.20
2023-01-28T15:48:27.464Z,33.50
2023-01-28T15:51:05.876Z,28.10
2023-01-28T15:53:42.180Z,28.90
2023-01-28T15:56:15.645Z,32.00
2023-01-28T15:58:43.720Z,26.80
2023-01-28T16:01:18.510Z,28.30
2023-01-28T16:04:00.970Z,28.70
2023-01-28T16:06:36.255Z,35.10
2023-01-28T16:09:37.269Z,33.20
2023-01-28T16:12:12.463Z,32.00
2023-01-28T16:14:45.422Z,36.80
2023-01-28T16:17:19.837Z,33.80
2023-01-28T16:19:51.331Z,39.00
2023-01-28T16:22:22.261Z,36.10
2023-01-28T16:24:52.956Z,35.00
2023-01-28T16:27:26.486Z,37.40
2023-01-28T16:29:54.375Z,35.20
2023-01-28T16:32:39.556Z,37.00
2023-01-28T16:35:18.477Z,33.10
2023-01-28T16:37:48.494Z,33.60
2023-01-28T16:40:22.334Z,31.20
2023-01-28T16:42:53.583Z,29.60
2023-01-28T16:45:25.907Z,24.40
2023-01-28T16:47:54.006Z,21.10
2023-01-28T16:50:23.177Z,21.80
2023-01-28T16:52:54.312Z,24.40
2023-01-28T16:55:22.744Z,21.90
2023-01-28T16:57:53.910Z,21.90
2023-01-28T17:00:27.571Z,18.60
2023-01-28T17:02:55.547Z,18.80
2023-01-28T17:05:23.563Z,13.30
2023-01-28T17:07:54.241Z,15.90
2023-01-28T17:10:22.397Z,18.40
2023-01-28T17:12:50.465Z,21.50
2023-01-28T17:15:19.136Z,20.90
2023-01-28T17:17:49.403Z,13.90
2023-01-28T17:20:17.518Z,11.60
2023-01-28T17:22:45.877Z,12.30
2023-01-28T17:25:14.937Z,17.40
2023-01-28T17:27:43.292Z,21.40
2023-01-28T17:30:11.803Z,26.30
2023-01-28T17:32:39.764Z,25.60
2023-01-28T17:35:08.392Z,21.90
2023-01-28T17:37:38.351Z,14.00
2023-01-28T17:40:07.225Z,12.60
2023-01-28T17:42:35.294Z,10.30
2023-01-28T17:45:03.487Z,14.10
2023-01-28T17:47:32.107Z,18.70
2023-01-28T17:50:00.502Z,18.90
2023-01-28T17:52:29.133Z,19.20
2023-01-28T17:54:57.348Z,20.50
2023-01-28T17:57:25.210Z,17.00
2023-01-28T17:59:53.422Z,18.20
2023-01-28T18:02:21.482Z,18.30
2023-01-28T18:04:49.523Z,19.30
2023-01-28T18:07:17.529Z,19.30
2023-01-28T18:09:48.593Z,21.10
2023-01-28T18:12:16.632Z,20.90
2023-01-28T18:14:44.803Z,17.40
2023-01-28T18:17:13.132Z,17.00
2023-01-28T18:19:41.097Z,19.70
2023-01-28T18:22:09.150Z,17.40
2023-01-28T18:24:37.490Z,16.90
2023-01-28T18:27:05.656Z,16.00
2023-01-28T18:29:33.648Z,15.30
2023-01-28T18:32:01.659Z,13.20
2023-01-28T18:34:31.652Z,15.70
2023-01-28T18:37:00.329Z,16.20
2023-01-28T18:39:30.316Z,17.90
2023-01-28T18:41:59.158Z,15.30
2023-01-28T18:44:30.081Z,19.00
2023-01-28T18:46:58.079Z,15.80
2023-01-28T18:49:26.037Z,18.10
2023-01-28T18:51:54.103Z,14.00
2023-01-28T18:54:23.278Z,17.30
2023-01-28T18:56:51.539Z,17.50
2023-01-28T18:59:19.757Z,13.90
2023-01-28T19:04:34.961Z,18.70
2023-01-28T19:07:12.108Z,20.50
2023-01-28T19:09:48.976Z,20.00
2023-01-28T19:12:16.859Z,20.30
2023-01-28T19:14:44.724Z,18.70
2023-01-28T19:17:13.008Z,13.70
2023-01-28T19:19:40.883Z,17.70
2023-01-28T19:22:09.557Z,15.60
2023-01-28T19:24:37.525Z,14.90
2023-01-28T19:27:05.975Z,14.20
2023-01-28T19:29:34.118Z,12.90
2023-01-28T19:32:02.247Z,15.10
2023-01-28T19:34:30.983Z,16.00
2023-01-28T19:36:59.827Z,14.00
2023-01-28T19:39:27.668Z,16.20
2023-01-28T19:41:55.755Z,15.20
2023-01-28T19:44:23.534Z,16.40
2023-01-28T19:46:51.796Z,16.20
2023-01-28T19:49:20.051Z,16.80
2023-01-28T19:51:48.333Z,18.40
2023-01-28T19:54:16.346Z,17.10
2023-01-28T19:56:44.329Z,13.70
2023-01-28T19:59:12.947Z,16.80
2023-01-28T20:01:41.294Z,12.30
2023-01-28T20:04:09.177Z,15.90
2023-01-28T20:06:37.086Z,20.00
2023-01-28T20:09:17.453Z,19.20
2023-01-28T20:11:45.868Z,15.20
2023-01-28T20:14:15.029Z,17.40
2023-01-28T20:16:42.922Z,18.00
2023-01-28T20:19:16.944Z,17.20
2023-01-28T20:21:46.291Z,18.30
2023-01-28T20:24:15.360Z,13.90
2023-01-28T20:26:43.942Z,16.60
2023-01-28T20:29:20.744Z,15.00
2023-01-28T20:32:01.085Z,17.80
2023-01-28T20:34:36.897Z,12.40
2023-01-28T20:37:06.560Z,15.20
2023-01-28T20:39:34.502Z,17.30
2023-01-28T20:42:03.517Z,25.20
2023-01-28T20:44:32.211Z,21.40
2023-01-28T20:47:00.512Z,23.30
2023-01-28T20:49:28.921Z,18.20
2023-01-28T20:51:57.220Z,18.50
2023-01-28T20:54:25.603Z,17.70
2023-01-28T20:56:53.777Z,15.20
2023-01-28T20:59:22.624Z,15.30
2023-01-28T21:01:50.618Z,16.20
2023-01-28T21:04:18.520Z,18.50
2023-01-28T21:06:46.487Z,20.50
2023-01-28T21:09:15.325Z,17.20
2023-01-28T21:11:43.289Z,13.50
2023-01-28T21:14:16.739Z,8.90
2023-01-28T21:16:44.800Z,11.50
2023-01-28T21:19:12.908Z,11.40
2023-01-28T21:21:43.014Z,9.60
2023-01-28T21:24:14.045Z,8.90
2023-01-28T21:26:41.883Z,10.00
2023-01-28T21:29:09.929Z,10.60
2023-01-28T21:31:39.442Z,11.10
2023-01-28T21:34:09.111Z,12.50
2023-01-28T21:36:37.568Z,12.30
2023-01-28T21:39:05.435Z,13.10
2023-01-28T21:41:33.707Z,11.60
2023-01-28T21:44:01.900Z,11.10
2023-01-28T21:46:32.267Z,9.00
2023-01-28T21:49:02.246Z,10.90
2023-01-28T21:51:36.483Z,9.50
2023-01-28T21:54:06.679Z,11.70
2023-01-28T21:56:34.538Z,9.70
2023-01-28T21:59:21.062Z,9.30
2023-01-28T22:01:49.503Z,13.90
2023-01-28T22:04:17.527Z,13.80
2023-01-28T22:06:45.619Z,15.00
2023-01-28T22:09:14.605Z,15.70
2023-01-28T22:11:45.170Z,14.10
2023-01-28T22:14:13.649Z,13.80
2023-01-28T22:16:42.223Z,12.70
2023-01-28T22:19:11.062Z,12.10
2023-01-28T22:21:44.253Z,16.00
2023-01-28T22:24:24.548Z,14.30
2023-01-28T22:26:54.080Z,13.10
2023-01-28T22:29:23.622Z,14.40
2023-01-28T22:31:53.320Z,14.70
2023-01-28T22:34:22.128Z,14.00
2023-01-28T22:36:51.173Z,14.60
2023-01-28T22:39:19.196Z,14.80
2023-01-28T22:41:47.784Z,19.40
2023-01-28T22:44:16.144Z,18.70
2023-01-28T22:46:44.122Z,17.80
2023-01-28T22:49:15.499Z,20.10
2023-01-28T22:51:43.751Z,15.50
2023-01-28T22:54:12.126Z,13.20
2023-01-28T22:56:40.248Z,14.50
2023-01-28T22:59:08.192Z,17.20
2023-01-28T23:01:36.772Z,15.00
2023-01-28T23:04:04.797Z,15.50
2023-01-28T23:06:33.708Z,20.60
2023-01-28T23:09:01.772Z,17.00
2023-01-28T23:11:29.958Z,19.60
2023-01-28T23:14:19.201Z,18.90
2023-01-28T23:17:06.741Z,16.40
2023-01-28T23:19:53.107Z,14.00
2023-01-28T23:22:50.591Z,15.20
2023-01-28T23:25:20.006Z,13.90
2023-01-28T23:27:48.071Z,16.60
2023-01-28T23:30:16.691Z,10.50
2023-01-28T23:32:49.506Z,11.50
2023-01-28T23:35:19.375Z,11.10
2023-01-28T23:37:48.532Z,9.90
2023-01-28T23:40:17.018Z,12.60
2023-01-28T23:42:49.492Z,10.10
2023-01-28T23:45:18.826Z,9.90
2023-01-28T23:47:47.152Z,9.60
2023-01-28T23:50:15.872Z,10.20
2023-01-28T23:52:44.084Z,12.20
2023-01-28T23:55:11.859Z,9.30
2023-01-28T23:57:39.764Z,11.90
